createdAt,value
2018-07-20T00:00:16.168Z,0.00
2018-07-20T00:01:16.164Z,0.00
2018-07-20T00:02:16.144Z,0.00
2018-07-20T00:03:16.132Z,0.00
2018-07-20T00:04:16.141Z,0.00
2018-07-20T00:05:16.108Z,0.00
2018-07-20T00:06:16.100Z,0.00
2018-07-20T00:07:16.093Z,0.00
2018-07-20T00:08:16.081Z,0.00
2018-07-20T00:09:16.089Z,0.00
2018-07-20T00:10:16.074Z,0.00
2018-07-20T00:11:16.049Z,0.00
2018-07-20T00:12:16.034Z,0.00
2018-07-20T00:13:16.021Z,0.00
2018-07-20T00:14:16.010Z,0.00
2018-07-20T00:15:16.091Z,0.00
2018-07-20T00:16:16.009Z,0.00
2018-07-20T00:17:22.547Z,0.00
2018-07-20T00:18:15.967Z,0.00
2018-07-20T00:19:15.951Z,0.00
2018-07-20T00:20:15.945Z,0.00
2018-07-20T00:21:15.939Z,0.00
2018-07-20T00:22:15.982Z,0.00
2018-07-20T00:23:15.905Z,0.00
2018-07-20T00:24:15.897Z,0.00
2018-07-20T00:25:15.886Z,0.00
2018-07-20T00:26:15.899Z,0.00
2018-07-20T00:27:15.867Z,0.00
2018-07-20T00:28:15.861Z,0.00
2018-07-20T00:29:15.841Z,0.00
2018-07-20T00:30:15.832Z,0.00
2018-07-20T00:31:15.818Z,0.00
2018-07-20T00:32:15.814Z,0.00
2018-07-20T00:33:15.793Z,0.00
2018-07-20T00:34:15.802Z,0.00
2018-07-20T00:35:15.769Z,0.00
2018-07-20T00:36:15.761Z,0.00
2018-07-20T00:37:15.768Z,0.00
2018-07-20T00:38:15.740Z,0.00
2018-07-20T00:39:15.726Z,0.00
2018-07-20T00:40:15.727Z,0.00
2018-07-20T00:41:15.704Z,0.00
2018-07-20T00:42:15.691Z,0.00
2018-07-20T00:43:15.690Z,0.00
2018-07-20T00:44:15.662Z,0.00
2018-07-20T00:45:15.651Z,0.00
2018-07-20T00:46:15.659Z,0.00
2018-07-20T00:47:15.640Z,0.00
2018-07-20T00:48:15.643Z,0.00
2018-07-20T00:49:16.564Z,0.00
2018-07-20T00:50:15.601Z,0.00
2018-07-20T00:51:15.589Z,0.00
2018-07-20T00:52:15.589Z,0.00
2018-07-20T00:53:15.567Z,0.00
2018-07-20T00:54:15.564Z,0.00
2018-07-20T00:55:15.548Z,0.00
2018-07-20T00:56:15.528Z,0.00
2018-07-20T00:57:15.517Z,0.00
2018-07-20T00:58:15.516Z,0.00
2018-07-20T00:59:15.525Z,0.00
2018-07-20T01:00:15.486Z,0.00
2018-07-20T01:01:15.474Z,0.00
2018-07-20T01:02:15.463Z,0.00
2018-07-20T01:03:15.448Z,0.00
2018-07-20T01:04:15.453Z,0.00
2018-07-20T01:05:15.444Z,0.00
2018-07-20T01:06:15.419Z,0.00
2018-07-20T01:07:15.415Z,0.00
2018-07-20T01:08:15.392Z,0.00
2018-07-20T01:09:15.385Z,0.00
2018-07-20T01:10:15.388Z,0.00
2018-07-20T01:11:15.366Z,0.00
2018-07-20T01:12:15.350Z,0.00
2018-07-20T01:13:15.339Z,0.00
2018-07-20T01:14:15.329Z,0.00
2018-07-20T01:15:15.338Z,0.00
2018-07-20T01:16:15.312Z,0.00
2018-07-20T01:17:15.296Z,0.00
2018-07-20T01:18:15.281Z,0.00
2018-07-20T01:19:15.265Z,0.00
2018-07-20T01:20:15.254Z,0.00
2018-07-20T01:21:15.255Z,0.00
2018-07-20T01:22:15.249Z,0.00
2018-07-20T01:23:15.222Z,0.00
2018-07-20T01:24:15.213Z,0.00
2018-07-20T01:25:15.201Z,0.00
2018-07-20T01:26:15.201Z,0.00
2018-07-20T01:27:15.183Z,0.00
2018-07-20T01:28:15.184Z,0.00
2018-07-20T01:29:15.151Z,0.00
2018-07-20T01:30:15.151Z,0.00
2018-07-20T01:31:15.138Z,0.00
2018-07-20T01:32:15.123Z,0.00
2018-07-20T01:33:15.110Z,0.00
2018-07-20T01:34:15.113Z,0.00
2018-07-20T01:35:15.086Z,0.00
2018-07-20T01:36:15.099Z,0.00
2018-07-20T01:37:15.062Z,0.00
2018-07-20T01:38:15.054Z,0.00
2018-07-20T01:39:15.043Z,0.00
2018-07-20T01:40:15.054Z,0.00
2018-07-20T01:41:15.019Z,0.00
2018-07-20T01:42:15.030Z,0.00
2018-07-20T01:43:14.994Z,0.00
2018-07-20T01:44:14.985Z,0.00
2018-07-20T01:45:14.976Z,0.00
2018-07-20T01:46:14.977Z,0.00
2018-07-20T01:47:14.956Z,0.00
2018-07-20T01:48:14.950Z,0.00
2018-07-20T01:49:14.929Z,0.00
2018-07-20T01:50:14.914Z,0.00
2018-07-20T01:51:14.907Z,0.00
2018-07-20T01:52:14.933Z,0.00
2018-07-20T01:53:14.877Z,0.00
2018-07-20T01:54:14.878Z,0.00
2018-07-20T01:55:14.862Z,0.00
2018-07-20T01:56:14.857Z,0.00
2018-07-20T01:57:14.838Z,0.00
2018-07-20T01:58:14.845Z,0.00
2018-07-20T01:59:14.819Z,0.00
2018-07-20T02:00:14.807Z,0.00
2018-07-20T02:01:14.789Z,0.00
2018-07-20T02:02:14.777Z,0.00
2018-07-20T02:03:14.793Z,0.00
2018-07-20T02:04:14.780Z,0.00
2018-07-20T02:05:14.747Z,0.00
2018-07-20T02:06:14.732Z,0.00
2018-07-20T02:07:14.732Z,0.00
2018-07-20T02:08:14.706Z,0.00
2018-07-20T02:09:14.772Z,0.00
2018-07-20T02:10:14.710Z,0.00
2018-07-20T02:11:14.677Z,0.00
2018-07-20T02:12:14.681Z,0.00
2018-07-20T02:13:14.657Z,0.00
2018-07-20T02:14:14.651Z,0.00
2018-07-20T02:15:14.649Z,0.00
2018-07-20T02:16:14.640Z,0.00
2018-07-20T02:17:14.615Z,0.00
2018-07-20T02:18:14.604Z,0.00
2018-07-20T02:19:14.589Z,0.00
2018-07-20T02:20:14.597Z,0.00
2018-07-20T02:21:14.573Z,0.00
2018-07-20T02:22:14.569Z,0.00
2018-07-20T02:23:14.542Z,0.00
2018-07-20T02:24:14.530Z,0.00
2018-07-20T02:25:14.519Z,0.00
2018-07-20T02:26:14.523Z,0.00
2018-07-20T02:27:14.505Z,0.00
2018-07-20T02:28:14.501Z,0.00
2018-07-20T02:29:14.475Z,0.00
2018-07-20T02:30:14.480Z,0.00
2018-07-20T02:31:14.451Z,0.00
2018-07-20T02:32:14.441Z,0.00
2018-07-20T02:33:14.432Z,0.00
2018-07-20T02:34:14.431Z,0.00
2018-07-20T02:35:14.429Z,0.00
2018-07-20T02:36:14.397Z,0.00
2018-07-20T02:37:14.387Z,0.00
2018-07-20T02:38:14.372Z,0.00
2018-07-20T02:39:14.364Z,0.00
2018-07-20T02:40:14.374Z,0.00
2018-07-20T02:41:14.366Z,0.00
2018-07-20T02:42:14.326Z,0.00
2018-07-20T02:43:14.328Z,4.00
2018-07-20T02:44:14.312Z,4.00
2018-07-20T02:45:14.292Z,0.00
2018-07-20T02:46:14.299Z,0.00
2018-07-20T02:47:14.303Z,4.00
2018-07-20T02:48:14.262Z,4.00
2018-07-20T02:49:14.252Z,4.00
2018-07-20T02:50:14.235Z,4.00
2018-07-20T02:51:14.229Z,4.00
2018-07-20T02:52:14.245Z,8.00
2018-07-20T02:53:14.210Z,8.00
2018-07-20T02:54:14.194Z,8.00
2018-07-20T02:55:14.182Z,12.00
2018-07-20T02:56:14.167Z,12.00
2018-07-20T02:57:14.161Z,12.00
2018-07-20T02:58:14.173Z,12.00
2018-07-20T02:59:14.136Z,16.00
2018-07-20T03:00:14.123Z,20.00
2018-07-20T03:01:14.113Z,16.00
2018-07-20T03:02:14.104Z,20.00
2018-07-20T03:03:14.114Z,24.00
2018-07-20T03:04:14.093Z,24.00
2018-07-20T03:05:14.065Z,28.00
2018-07-20T03:06:14.052Z,32.00
2018-07-20T03:07:14.050Z,36.00
2018-07-20T03:08:14.029Z,40.00
2018-07-20T03:09:14.162Z,44.00
2018-07-20T03:10:14.021Z,48.00
2018-07-20T03:11:14.005Z,56.00
2018-07-20T03:12:13.983Z,60.00
2018-07-20T03:13:13.972Z,64.00
2018-07-20T03:14:13.998Z,72.00
2018-07-20T03:15:13.956Z,76.00
2018-07-20T03:16:13.960Z,84.00
2018-07-20T03:17:13.934Z,88.00
2018-07-20T03:18:13.924Z,96.00
2018-07-20T03:19:13.901Z,104.00
2018-07-20T03:20:13.907Z,112.00
2018-07-20T03:21:13.884Z,120.00
2018-07-20T03:22:13.882Z,132.00
2018-07-20T03:23:13.862Z,140.00
2018-07-20T03:24:13.850Z,152.00
2018-07-20T03:25:13.848Z,160.00
2018-07-20T03:26:13.835Z,172.00
2018-07-20T03:27:13.821Z,180.00
2018-07-20T03:28:13.820Z,196.00
2018-07-20T03:29:13.793Z,204.00
2018-07-20T03:30:13.816Z,220.00
2018-07-20T03:31:13.771Z,236.00
2018-07-20T03:32:13.761Z,248.00
2018-07-20T03:33:13.746Z,264.00
2018-07-20T03:34:13.762Z,276.00
2018-07-20T03:35:13.723Z,292.00
2018-07-20T03:36:13.727Z,312.00
2018-07-20T03:37:13.699Z,324.00
2018-07-20T03:38:13.693Z,340.00
2018-07-20T03:39:13.679Z,360.00
2018-07-20T03:40:13.678Z,376.00
2018-07-20T03:41:13.679Z,392.00
2018-07-20T03:42:13.645Z,412.00
2018-07-20T03:43:13.636Z,428.00
2018-07-20T03:44:13.621Z,444.00
2018-07-20T03:45:13.604Z,464.00
2018-07-20T03:46:13.615Z,484.00
2018-07-20T03:47:13.599Z,508.00
2018-07-20T03:48:13.578Z,528.00
2018-07-20T03:49:13.565Z,548.00
2018-07-20T03:50:13.552Z,572.00
2018-07-20T03:51:13.542Z,592.00
2018-07-20T03:52:13.608Z,616.00
2018-07-20T03:53:13.521Z,636.00
2018-07-20T03:54:13.503Z,660.00
2018-07-20T03:55:13.498Z,684.00
2018-07-20T03:56:13.479Z,704.00
2018-07-20T03:57:13.472Z,728.00
2018-07-20T03:58:13.484Z,748.00
2018-07-20T03:59:13.455Z,772.00
2018-07-20T04:00:13.435Z,796.00
2018-07-20T04:01:13.429Z,820.00
2018-07-20T04:02:13.415Z,844.00
2018-07-20T04:03:13.425Z,864.00
2018-07-20T04:04:13.455Z,888.00
2018-07-20T04:05:13.378Z,908.00
2018-07-20T04:06:13.365Z,932.00
2018-07-20T04:07:13.364Z,956.00
2018-07-20T04:08:13.349Z,976.00
2018-07-20T04:09:14.026Z,996.00
2018-07-20T04:10:13.349Z,1016.00
2018-07-20T04:11:13.315Z,1036.00
2018-07-20T04:12:13.300Z,1052.00
2018-07-20T04:13:13.289Z,1068.00
2018-07-20T04:14:13.315Z,1084.00
2018-07-20T04:15:13.282Z,1100.00
2018-07-20T04:16:13.248Z,1120.00
2018-07-20T04:17:14.025Z,1132.00
2018-07-20T04:18:13.232Z,1148.00
2018-07-20T04:19:13.218Z,1164.00
2018-07-20T04:20:13.252Z,1176.00
2018-07-20T04:21:13.198Z,1192.00
2018-07-20T04:22:13.180Z,1204.00
2018-07-20T04:23:13.183Z,1220.00
2018-07-20T04:24:13.166Z,1232.00
2018-07-20T04:25:13.152Z,1248.00
2018-07-20T04:26:13.199Z,1264.00
2018-07-20T04:27:14.027Z,1280.00
2018-07-20T04:28:13.121Z,1292.00
2018-07-20T04:29:13.107Z,1304.00
2018-07-20T04:30:13.097Z,1316.00
2018-07-20T04:31:13.101Z,1328.00
2018-07-20T04:32:13.081Z,1340.00
2018-07-20T04:33:13.063Z,1352.00
2018-07-20T04:34:13.054Z,1360.00
2018-07-20T04:35:13.043Z,1372.00
2018-07-20T04:36:13.026Z,1384.00
2018-07-20T04:37:13.060Z,1396.00
2018-07-20T04:38:13.001Z,1412.00
2018-07-20T04:39:12.994Z,1424.00
2018-07-20T04:40:12.989Z,1436.00
2018-07-20T04:41:12.975Z,1448.00
2018-07-20T04:42:12.957Z,1464.00
2018-07-20T04:43:12.976Z,1476.00
2018-07-20T04:44:12.940Z,1492.00
2018-07-20T04:45:12.927Z,1508.00
2018-07-20T04:46:12.914Z,1520.00
2018-07-20T04:47:12.906Z,1532.00
2018-07-20T04:48:12.914Z,1544.00
2018-07-20T04:49:12.898Z,1556.00
2018-07-20T04:50:12.870Z,1568.00
2018-07-20T04:51:12.858Z,1580.00
2018-07-20T04:52:12.849Z,1592.00
2018-07-20T04:53:12.838Z,1604.00
2018-07-20T04:54:12.833Z,1616.00
2018-07-20T04:55:12.825Z,1628.00
2018-07-20T04:56:12.805Z,1640.00
2018-07-20T04:57:12.787Z,1648.00
2018-07-20T04:58:12.778Z,1656.00
2018-07-20T04:59:12.795Z,1668.00
2018-07-20T05:00:12.759Z,1676.00
2018-07-20T05:01:12.755Z,1688.00
2018-07-20T05:02:12.733Z,1700.00
2018-07-20T05:03:12.720Z,1712.00
2018-07-20T05:04:12.707Z,1720.00
2018-07-20T05:05:12.709Z,1728.00
2018-07-20T05:06:12.683Z,1740.00
2018-07-20T05:07:12.698Z,1744.00
2018-07-20T05:08:12.666Z,1748.00
2018-07-20T05:09:12.652Z,1756.00
2018-07-20T05:10:12.656Z,1768.00
2018-07-20T05:11:12.626Z,1776.00
2018-07-20T05:12:12.621Z,1788.00
2018-07-20T05:13:12.618Z,1792.00
2018-07-20T05:14:12.592Z,1796.00
2018-07-20T05:15:12.585Z,1800.00
2018-07-20T05:16:12.589Z,1808.00
2018-07-20T05:17:12.566Z,1812.00
2018-07-20T05:18:12.558Z,1824.00
2018-07-20T05:19:12.577Z,1828.00
2018-07-20T05:20:12.578Z,1832.00
2018-07-20T05:21:12.542Z,1840.00
2018-07-20T05:22:12.512Z,1844.00
2018-07-20T05:23:12.514Z,1852.00
2018-07-20T05:24:12.543Z,1856.00
2018-07-20T05:25:12.474Z,1860.00
2018-07-20T05:26:12.479Z,1864.00
2018-07-20T05:27:12.464Z,1868.00
2018-07-20T05:28:12.438Z,1876.00
2018-07-20T05:29:12.426Z,1880.00
2018-07-20T05:30:12.418Z,1892.00
2018-07-20T05:31:12.447Z,1900.00
2018-07-20T05:32:12.422Z,1912.00
2018-07-20T05:33:12.383Z,1908.00
2018-07-20T05:34:12.368Z,1916.00
2018-07-20T05:35:12.350Z,1920.00
2018-07-20T05:36:12.348Z,1928.00
2018-07-20T05:37:12.348Z,1936.00
2018-07-20T05:38:12.374Z,1944.00
2018-07-20T05:39:12.308Z,1952.00
2018-07-20T05:40:12.300Z,1960.00
2018-07-20T05:41:12.289Z,1964.00
2018-07-20T05:42:12.276Z,1972.00
2018-07-20T05:43:12.305Z,1976.00
2018-07-20T05:44:12.252Z,1984.00
2018-07-20T05:45:12.249Z,1988.00
2018-07-20T05:46:12.232Z,1996.00
2018-07-20T05:47:12.226Z,2004.00
2018-07-20T05:48:12.208Z,2020.00
2018-07-20T05:49:12.222Z,2024.00
2018-07-20T05:50:12.183Z,2040.00
2018-07-20T05:51:12.176Z,2048.00
2018-07-20T05:52:12.166Z,2052.00
2018-07-20T05:53:12.148Z,2060.00
2018-07-20T05:54:12.162Z,2068.00
2018-07-20T05:55:12.143Z,2072.00
2018-07-20T05:56:12.116Z,2084.00
2018-07-20T05:57:12.102Z,2088.00
2018-07-20T05:58:12.092Z,2096.00
2018-07-20T05:59:12.092Z,2104.00
2018-07-20T06:00:12.106Z,2112.00
2018-07-20T06:01:12.074Z,2120.00
2018-07-20T06:02:12.053Z,2132.00
2018-07-20T06:03:12.037Z,2140.00
2018-07-20T06:04:12.082Z,2148.00
2018-07-20T06:05:12.008Z,2164.00
2018-07-20T06:06:12.025Z,2176.00
2018-07-20T06:07:12.020Z,2184.00
2018-07-20T06:08:12.000Z,2192.00
2018-07-20T06:09:11.987Z,2196.00
2018-07-20T06:10:11.954Z,2204.00
2018-07-20T06:11:12.020Z,2204.00
2018-07-20T06:12:11.932Z,2208.00
2018-07-20T06:13:11.955Z,2208.00
2018-07-20T06:14:11.935Z,2208.00
2018-07-20T06:15:11.898Z,2204.00
2018-07-20T06:16:11.888Z,2208.00
2018-07-20T06:17:11.895Z,2200.00
2018-07-20T06:18:11.860Z,2192.00
2018-07-20T06:19:11.872Z,2180.00
2018-07-20T06:20:11.842Z,2112.00
2018-07-20T06:21:11.833Z,2100.00
2018-07-20T06:22:11.835Z,2076.00
2018-07-20T06:23:11.804Z,2068.00
2018-07-20T06:24:11.797Z,2096.00
2018-07-20T06:25:11.808Z,2136.00
2018-07-20T06:26:11.765Z,2216.00
2018-07-20T06:27:11.763Z,2244.00
2018-07-20T06:28:11.763Z,2272.00
2018-07-20T06:29:11.742Z,2296.00
2018-07-20T06:30:11.730Z,2312.00
2018-07-20T06:31:11.730Z,2328.00
2018-07-20T06:32:11.705Z,2340.00
2018-07-20T06:33:11.734Z,2348.00
2018-07-20T06:34:11.679Z,2356.00
2018-07-20T06:35:11.670Z,2360.00
2018-07-20T06:36:11.660Z,2364.00
2018-07-20T06:37:11.664Z,2368.00
2018-07-20T06:38:11.640Z,2376.00
2018-07-20T06:39:11.645Z,2384.00
2018-07-20T06:40:11.614Z,2392.00
2018-07-20T06:41:11.603Z,2400.00
2018-07-20T06:42:11.586Z,2404.00
2018-07-20T06:43:11.601Z,2412.00
2018-07-20T06:44:11.594Z,2424.00
2018-07-20T06:45:11.562Z,2424.00
2018-07-20T06:46:11.550Z,2428.00
2018-07-20T06:47:11.532Z,2432.00
2018-07-20T06:48:11.529Z,2396.00
2018-07-20T06:49:11.523Z,2452.00
2018-07-20T06:50:11.519Z,2576.00
2018-07-20T06:51:11.485Z,2784.00
2018-07-20T06:52:12.037Z,2860.00
2018-07-20T06:53:11.465Z,2844.00
2018-07-20T06:54:11.500Z,2812.00
2018-07-20T06:55:11.482Z,2748.00
2018-07-20T06:56:11.433Z,2604.00
2018-07-20T06:57:11.422Z,2656.00
2018-07-20T06:58:11.406Z,2648.00
2018-07-20T06:59:11.398Z,2692.00
2018-07-20T07:00:11.402Z,2704.00
2018-07-20T07:01:11.389Z,2708.00
2018-07-20T07:02:11.366Z,2712.00
2018-07-20T07:03:11.353Z,2704.00
2018-07-20T07:04:11.336Z,2620.00
2018-07-20T07:05:11.331Z,2528.00
2018-07-20T07:06:11.357Z,2388.00
2018-07-20T07:07:11.317Z,2364.00
2018-07-20T07:08:12.037Z,2472.00
2018-07-20T07:09:11.292Z,2588.00
2018-07-20T07:10:11.283Z,2640.00
2018-07-20T07:11:11.262Z,2664.00
2018-07-20T07:12:11.276Z,2676.00
2018-07-20T07:13:11.239Z,2688.00
2018-07-20T07:14:11.228Z,2684.00
2018-07-20T07:15:11.221Z,2676.00
2018-07-20T07:16:11.202Z,2528.00
2018-07-20T07:17:11.226Z,2464.00
2018-07-20T07:18:11.211Z,2676.00
2018-07-20T07:19:11.172Z,2704.00
2018-07-20T07:20:11.164Z,2672.00
2018-07-20T07:21:11.149Z,2628.00
2018-07-20T07:22:11.185Z,2656.00
2018-07-20T07:23:11.136Z,2636.00
2018-07-20T07:24:11.133Z,2548.00
2018-07-20T07:25:11.103Z,2076.00
2018-07-20T07:26:11.103Z,1992.00
2018-07-20T07:27:11.080Z,2012.00
2018-07-20T07:28:11.097Z,2052.00
2018-07-20T07:29:11.129Z,1988.00
2018-07-20T07:30:11.079Z,2076.00
2018-07-20T07:31:11.034Z,2268.00
2018-07-20T07:32:11.023Z,2384.00
2018-07-20T07:33:11.072Z,2440.00
2018-07-20T07:34:11.010Z,2468.00
2018-07-20T07:35:10.990Z,2496.00
2018-07-20T07:36:11.008Z,2524.00
2018-07-20T07:37:10.971Z,2520.00
2018-07-20T07:38:10.982Z,2552.00
2018-07-20T07:39:10.952Z,2568.00
2018-07-20T07:40:10.940Z,2576.00
2018-07-20T07:41:10.938Z,2596.00
2018-07-20T07:42:10.969Z,2612.00
2018-07-20T07:43:11.039Z,2628.00
2018-07-20T07:44:10.895Z,2632.00
2018-07-20T07:45:10.881Z,2640.00
2018-07-20T07:46:10.874Z,2644.00
2018-07-20T07:47:11.540Z,2652.00
2018-07-20T07:48:10.869Z,2660.00
2018-07-20T07:49:10.847Z,2668.00
2018-07-20T07:50:10.823Z,2680.00
2018-07-20T07:51:10.819Z,2680.00
2018-07-20T07:52:10.804Z,2680.00
2018-07-20T07:53:10.807Z,2660.00
2018-07-20T07:54:10.827Z,2676.00
2018-07-20T07:55:10.777Z,2660.00
2018-07-20T07:56:10.763Z,2648.00
2018-07-20T07:57:10.754Z,2628.00
2018-07-20T07:58:10.743Z,2584.00
2018-07-20T07:59:10.751Z,2588.00
2018-07-20T08:00:10.734Z,2564.00
2018-07-20T08:01:10.715Z,2548.00
2018-07-20T08:02:10.702Z,2556.00
2018-07-20T08:03:10.712Z,2544.00
2018-07-20T08:04:10.695Z,2532.00
2018-07-20T08:05:10.681Z,2520.00
2018-07-20T08:06:10.684Z,2512.00
2018-07-20T08:07:10.646Z,2504.00
2018-07-20T08:08:10.647Z,2496.00
2018-07-20T08:09:10.650Z,2496.00
2018-07-20T08:10:10.635Z,2492.00
2018-07-20T08:11:10.604Z,2484.00
2018-07-20T08:12:10.612Z,2476.00
2018-07-20T08:13:10.585Z,2468.00
2018-07-20T08:14:10.591Z,2472.00
2018-07-20T08:15:10.563Z,2468.00
2018-07-20T08:16:10.565Z,2468.00
2018-07-20T08:17:10.539Z,2464.00
2018-07-20T08:18:10.545Z,2464.00
2018-07-20T08:19:10.531Z,2456.00
2018-07-20T08:20:10.507Z,2452.00
2018-07-20T08:21:10.494Z,2452.00
2018-07-20T08:22:10.480Z,2452.00
2018-07-20T08:23:10.468Z,2452.00
2018-07-20T08:24:10.563Z,2464.00
2018-07-20T08:25:10.445Z,2460.00
2018-07-20T08:26:10.444Z,2460.00
2018-07-20T08:27:10.429Z,2464.00
2018-07-20T08:28:10.416Z,2472.00
2018-07-20T08:29:10.396Z,2492.00
2018-07-20T08:30:10.420Z,2540.00
2018-07-20T08:31:10.376Z,2564.00
2018-07-20T08:32:10.368Z,2584.00
2018-07-20T08:33:10.358Z,2608.00
2018-07-20T08:34:10.345Z,2608.00
2018-07-20T08:35:10.337Z,2616.00
2018-07-20T08:36:10.372Z,2620.00
2018-07-20T08:37:10.311Z,2604.00
2018-07-20T08:38:10.298Z,2600.00
2018-07-20T08:39:10.284Z,2604.00
2018-07-20T08:40:10.272Z,2600.00
2018-07-20T08:41:10.272Z,2588.00
2018-07-20T08:42:10.294Z,2616.00
2018-07-20T08:43:10.241Z,2640.00
2018-07-20T08:44:10.239Z,2628.00
2018-07-20T08:45:10.218Z,2636.00
2018-07-20T08:46:10.210Z,2640.00
2018-07-20T08:47:10.244Z,2660.00
2018-07-20T08:48:10.218Z,2692.00
2018-07-20T08:49:10.180Z,2700.00
2018-07-20T08:50:10.164Z,2724.00
2018-07-20T08:51:10.155Z,2748.00
2018-07-20T08:52:10.152Z,2744.00
2018-07-20T08:53:10.163Z,2768.00
2018-07-20T08:54:10.212Z,2804.00
2018-07-20T08:55:10.114Z,2832.00
2018-07-20T08:56:10.101Z,2864.00
2018-07-20T08:57:10.096Z,2896.00
2018-07-20T08:58:10.078Z,2964.00
2018-07-20T08:59:10.086Z,2968.00
2018-07-20T09:00:10.084Z,2988.00
2018-07-20T09:01:10.044Z,3004.00
2018-07-20T09:02:10.029Z,2992.00
2018-07-20T09:03:10.028Z,3028.00
2018-07-20T09:04:10.028Z,3076.00
2018-07-20T09:05:10.009Z,3116.00
2018-07-20T09:06:10.008Z,3108.00
2018-07-20T09:07:09.981Z,3088.00
2018-07-20T09:08:09.983Z,3096.00
2018-07-20T09:09:09.976Z,3036.00
2018-07-20T09:10:09.947Z,2940.00
2018-07-20T09:11:09.939Z,2880.00
2018-07-20T09:12:09.953Z,2988.00
2018-07-20T09:13:09.911Z,2844.00
2018-07-20T09:14:09.912Z,2120.00
2018-07-20T09:15:09.886Z,2120.00
2018-07-20T09:16:09.890Z,2160.00
2018-07-20T09:17:09.868Z,3124.00
2018-07-20T09:18:09.877Z,2552.00
2018-07-20T09:19:09.877Z,2200.00
2018-07-20T09:20:09.836Z,2180.00
2018-07-20T09:21:09.826Z,2116.00
2018-07-20T09:22:09.818Z,2140.00
2018-07-20T09:23:09.804Z,3124.00
2018-07-20T09:24:09.822Z,2568.00
2018-07-20T09:25:09.783Z,2120.00
2018-07-20T09:26:09.776Z,2056.00
2018-07-20T09:27:09.763Z,2092.00
2018-07-20T09:28:09.754Z,2064.00
2018-07-20T09:29:09.752Z,2004.00
2018-07-20T09:30:09.742Z,1996.00
2018-07-20T09:31:09.715Z,1884.00
2018-07-20T09:32:09.711Z,1844.00
2018-07-20T09:33:09.692Z,1948.00
2018-07-20T09:34:09.802Z,1904.00
2018-07-20T09:35:09.670Z,1928.00
2018-07-20T09:36:09.694Z,1936.00
2018-07-20T09:37:09.648Z,1948.00
2018-07-20T09:38:09.644Z,1932.00
2018-07-20T09:39:09.647Z,1900.00
2018-07-20T09:40:09.624Z,1888.00
2018-07-20T09:41:09.604Z,1864.00
2018-07-20T09:42:09.619Z,1896.00
2018-07-20T09:43:09.581Z,1956.00
2018-07-20T09:44:09.593Z,1996.00
2018-07-20T09:45:09.568Z,2076.00
2018-07-20T09:46:09.544Z,2968.00
2018-07-20T09:47:09.547Z,3012.00
2018-07-20T09:48:09.560Z,3068.00
2018-07-20T09:49:09.529Z,2972.00
2018-07-20T09:50:09.505Z,3004.00
2018-07-20T09:51:09.495Z,3124.00
2018-07-20T09:52:09.495Z,3128.00
2018-07-20T09:53:09.478Z,3160.00
2018-07-20T09:54:09.485Z,2188.00
2018-07-20T09:55:09.451Z,2104.00
2018-07-20T09:56:09.439Z,2168.00
2018-07-20T09:57:09.424Z,3220.00
2018-07-20T09:58:09.416Z,3168.00
2018-07-20T09:59:09.424Z,3324.00
2018-07-20T10:00:09.422Z,3264.00
2018-07-20T10:01:09.385Z,3204.00
2018-07-20T10:02:09.368Z,2944.00
2018-07-20T10:03:09.362Z,2980.00
2018-07-20T10:04:09.362Z,3232.00
2018-07-20T10:05:09.344Z,3280.00
2018-07-20T10:06:09.352Z,3340.00
2018-07-20T10:07:09.318Z,3336.00
2018-07-20T10:08:09.317Z,3364.00
2018-07-20T10:09:09.310Z,3420.00
2018-07-20T10:10:09.287Z,3484.00
2018-07-20T10:11:09.276Z,3480.00
2018-07-20T10:12:09.281Z,3516.00
2018-07-20T10:13:09.261Z,3480.00
2018-07-20T10:14:10.080Z,3436.00
2018-07-20T10:15:09.235Z,3412.00
2018-07-20T10:16:09.222Z,3428.00
2018-07-20T10:17:09.230Z,3424.00
2018-07-20T10:18:09.201Z,3436.00
2018-07-20T10:19:09.226Z,3404.00
2018-07-20T10:20:09.177Z,3408.00
2018-07-20T10:21:09.164Z,3468.00
2018-07-20T10:22:09.152Z,3448.00
2018-07-20T10:23:09.172Z,3428.00
2018-07-20T10:24:09.144Z,3440.00
2018-07-20T10:25:09.120Z,3440.00
2018-07-20T10:26:09.107Z,3424.00
2018-07-20T10:28:41.695Z,3392.00
2018-07-20T10:29:41.685Z,3452.00
2018-07-20T10:30:41.662Z,3404.00
2018-07-20T10:31:41.692Z,3292.00
2018-07-20T10:32:41.659Z,3056.00
2018-07-20T10:33:41.592Z,3112.00
2018-07-20T10:34:41.639Z,3068.00
2018-07-20T10:35:41.627Z,3048.00
2018-07-20T10:36:41.619Z,3044.00
2018-07-20T10:37:41.588Z,3060.00
2018-07-20T10:38:41.539Z,3096.00
2018-07-20T10:39:41.603Z,3128.00
2018-07-20T10:40:41.529Z,3200.00
2018-07-20T10:41:41.541Z,3252.00
2018-07-20T10:42:41.543Z,3280.00
2018-07-20T10:43:41.491Z,3240.00
2018-07-20T10:44:41.470Z,3192.00
2018-07-20T10:45:41.558Z,3204.00
2018-07-20T10:46:41.479Z,3112.00
2018-07-20T10:47:41.544Z,3176.00
2018-07-20T10:48:41.423Z,3196.00
2018-07-20T10:49:41.404Z,3244.00
2018-07-20T10:50:41.436Z,3220.00
2018-07-20T10:51:41.376Z,3224.00
2018-07-20T10:52:41.361Z,3248.00
2018-07-20T10:53:41.381Z,3044.00
2018-07-20T10:54:41.341Z,2944.00
2018-07-20T10:55:41.342Z,2116.00
2018-07-20T10:56:41.347Z,3124.00
2018-07-20T10:57:41.308Z,3088.00
2018-07-20T10:58:41.307Z,2812.00
2018-07-20T10:59:41.283Z,2296.00
2018-07-20T11:00:41.276Z,2028.00
2018-07-20T11:01:41.320Z,3048.00
2018-07-20T11:02:41.282Z,1908.00
2018-07-20T11:03:41.241Z,1868.00
2018-07-20T11:04:41.242Z,1808.00
2018-07-20T11:05:41.217Z,1828.00
2018-07-20T11:06:41.209Z,2080.00
2018-07-20T11:07:41.226Z,3048.00
2018-07-20T11:08:41.187Z,3024.00
2018-07-20T11:09:41.183Z,3044.00
2018-07-20T11:10:41.188Z,2392.00
2018-07-20T11:11:41.159Z,3004.00
2018-07-20T11:12:41.150Z,3012.00
2018-07-20T11:13:41.200Z,2984.00
2018-07-20T11:14:41.124Z,3020.00
2018-07-20T11:15:41.112Z,3132.00
2018-07-20T11:16:41.115Z,3196.00
2018-07-20T11:17:41.090Z,3264.00
2018-07-20T11:18:41.071Z,3340.00
2018-07-20T11:19:41.090Z,3360.00
2018-07-20T11:20:41.054Z,3316.00
2018-07-20T11:21:41.045Z,3324.00
2018-07-20T11:22:41.050Z,3368.00
2018-07-20T11:23:41.040Z,2532.00
2018-07-20T11:24:41.024Z,3516.00
2018-07-20T11:25:40.995Z,3644.00
2018-07-20T11:26:40.991Z,3688.00
2018-07-20T11:27:40.973Z,3616.00
2018-07-20T11:28:40.999Z,3548.00
2018-07-20T11:29:40.984Z,3548.00
2018-07-20T11:30:40.953Z,3544.00
2018-07-20T11:31:40.935Z,3568.00
2018-07-20T11:32:40.933Z,3584.00
2018-07-20T11:33:40.912Z,3576.00
2018-07-20T11:34:40.931Z,3604.00
2018-07-20T11:35:40.925Z,3644.00
2018-07-20T11:36:40.886Z,3684.00
2018-07-20T11:37:40.867Z,3764.00
2018-07-20T11:38:40.866Z,3692.00
2018-07-20T11:39:40.848Z,3548.00
2018-07-20T11:40:40.850Z,2804.00
2018-07-20T11:41:40.844Z,4020.00
2018-07-20T11:42:40.817Z,3748.00
2018-07-20T11:43:40.812Z,3980.00
2018-07-20T11:44:40.797Z,3688.00
2018-07-20T11:45:40.809Z,4072.00
2018-07-20T11:46:40.820Z,3556.00
2018-07-20T11:47:40.765Z,2472.00
2018-07-20T11:48:40.748Z,2516.00
2018-07-20T11:49:41.608Z,2540.00
2018-07-20T11:50:40.726Z,3276.00
2018-07-20T11:51:40.724Z,2332.00
2018-07-20T11:52:40.732Z,2276.00
2018-07-20T11:53:40.694Z,2224.00
2018-07-20T11:54:40.685Z,2196.00
2018-07-20T11:55:40.674Z,2264.00
2018-07-20T11:56:40.659Z,3956.00
2018-07-20T11:57:40.661Z,4036.00
2018-07-20T11:58:40.674Z,2228.00
2018-07-20T11:59:40.638Z,2156.00
2018-07-20T12:00:40.622Z,2176.00
2018-07-20T12:01:41.597Z,2192.00
2018-07-20T12:02:40.613Z,2188.00
2018-07-20T12:03:40.602Z,2164.00
2018-07-20T12:04:40.569Z,2176.00
2018-07-20T12:05:40.566Z,2216.00
2018-07-20T12:06:40.545Z,3784.00
2018-07-20T12:07:40.564Z,4064.00
2018-07-20T12:08:40.525Z,4128.00
2018-07-20T12:09:40.552Z,2772.00
2018-07-20T12:10:40.508Z,4244.00
2018-07-20T12:11:40.498Z,4276.00
2018-07-20T12:12:40.499Z,4340.00
2018-07-20T12:13:40.473Z,4320.00
2018-07-20T12:14:40.468Z,4272.00
2018-07-20T12:15:40.472Z,4240.00
2018-07-20T12:16:40.439Z,4220.00
2018-07-20T12:17:40.466Z,4236.00
2018-07-20T12:18:40.422Z,2132.00
2018-07-20T12:19:40.409Z,2088.00
2018-07-20T12:20:40.414Z,2244.00
2018-07-20T12:21:40.409Z,2984.00
2018-07-20T12:22:40.382Z,2128.00
2018-07-20T12:23:40.388Z,4132.00
2018-07-20T12:24:40.357Z,2192.00
2018-07-20T12:25:40.344Z,2052.00